Weather observations for the past three days for
Hobbs / Lea County
Metric (Imperial)
Date Time (mdt) Wind (kph) Vis. (km) Weather Sky Cond. Temperature (ºC) Relative Humidity Wind Chill (°C) Heat Index (°C) Pressure Precipitation (cm)
Air Dwpt 6 hour altimeter (cm) sea level (mb) 1 hr 3 hr 6 hr
Max. Min.
31 05:50 SE 15 16.09 Fair CLR 23 14 57% 76.35 0.0
31 03:35 S 20 G 30 16.09 Fair CLR 25 14 51% 26 76.33 0.0
31 00:15 S 13 16.09 Fair CLR 26 11 39% 26 76.33 0.0
30 23:55 S 15 16.09 Fair CLR 27 11 37% 27 76.33 0.0
30 23:35 S 15 16.09 Fair CLR 27 10 34% 27 76.33 0.0
30 23:15 SE 11 16.09 Fair CLR 26 10 37% 26 76.33 0.0
30 22:55 SE 13 16.09 Fair CLR 27 10 34% 27 76.33 0.0
30 22:35 SE 13 16.09 Fair CLR 27 11 37% 27 76.3 0.0
30 22:15 SE 13 16.09 Fair CLR 28 11 35% 27 76.3 0.0
30 21:55 SE 15 16.09 Fair CLR 29 11 33% 28 76.28 0.0
30 21:35 SE 17 16.09 Fair CLR 29 11 33% 28 76.28 0.0
30 21:15 SE 20 16.09 Fair CLR 30 11 31% 29 76.25 0.0
30 20:55 SE 17 16.09 Fair CLR 30 10 29% 29 76.23 0.0
30 20:35 SE 15 16.09 Fair CLR 31 9 25% 29 76.2 0.0
30 20:15 SE 15 16.09 Fair CLR 31 9 25% 29 76.17 0.0
30 19:35 SE 17 16.09 Fair CLR 33 9 23% 31 76.15 0.0
30 19:15 SE 19 16.09 Mostly Cloudy BKN100 34 9 21% 32 76.15 0.0
30 18:35 SE 13 G 24 16.09 Partly Cloudy SCT100 35 9 20% 33 76.12 0.0
30 18:15 S 15 16.09 A Few Clouds FEW100 35 9 20% 33 76.12 0.0
30 17:50 E 15 G 31 16.09 Fair CLR 36 8 18% 34 76.12 0.0
30 16:50 SE 15 16.09 Fair CLR 36 8 18% 34 76.12 0.0
30 15:50 E 19 G 33 16.09 Fair CLR 37 7 16% 35 76.15 0.0
30 14:50 SE 7 16.09 Fair CLR 36 8 18% 34 76.23 0.0
30 13:50 E 9 G 26 16.09 Fair CLR 36 8 18% 34 76.3 0.0
30 12:50 E 17 16.09 Fair CLR 35 9 20% 33 76.35 0.0
30 11:50 SE 13 16.09 Fair CLR 33 10 24% 31 76.4 0.0
30 10:50 S 13 16.09 Fair CLR 32 13 31% 31 76.48 0.0
30 09:50 S 15 16.09 Fair CLR 29 15 43% 29 76.48 0.0
30 08:50 S 26 16.09 Fair CLR 27 15 48% 27 76.48 0.0
30 07:50 S 19 16.09 Fair CLR 25 15 54% 26 76.48 0.0
30 06:50 S 13 16.09 Fair CLR 22 14 61% 76.43 0.0
30 05:50 S 13 G 24 16.09 Fair CLR 22 14 61% 76.4 0.0
30 05:35 S 17 G 26 16.09 Fair CLR 23 14 57% 76.4 0.0
30 05:15 S 15 16.09 Fair CLR 23 14 57% 76.4 0.0
30 04:35 S 15 16.09 Fair CLR 23 14 57% 76.4 0.0
30 04:15 S 17 16.09 Fair CLR 23 14 57% 76.4 0.0
30 03:35 SW 13 16.09 Fair CLR 23 14 57% 76.4 0.0
30 03:15 S 15 16.09 Fair CLR 24 14 54% 25 76.4 0.0
30 02:55 S 15 16.09 Fair CLR 24 13 50% 25 76.38 0.0
30 02:35 S 13 16.09 A Few Clouds FEW050 24 13 50% 25 76.4 0.0
30 02:15 S 15 16.09 Fair CLR 24 13 50% 25 76.4 0.0
30 01:55 S 15 16.09 Fair CLR 25 13 47% 26 76.4 0.0
30 00:55 S 17 16.09 Fair CLR 26 12 42% 26 76.43 0.0
30 00:35 S 20 16.09 Fair CLR 26 12 42% 26 76.4 0.0
29 23:55 S 13 16.09 Fair CLR 26 11 39% 26 76.43 0.0
29 22:55 S 17 16.09 Fair CLR 28 10 32% 27 76.43 0.0
29 22:35 S 17 16.09 Fair CLR 28 10 32% 27 76.4 0.0
29 22:15 S 15 16.09 Fair CLR 28 10 32% 27 76.43 0.0
29 20:55 S 17 16.09 Fair CLR 30 10 29% 29 76.35 0.0
29 17:50 SE 22 16.09 Fair CLR 35 8 19% 33 76.28 0.0
29 16:50 S 24 16.09 A Few Clouds FEW100 36 9 19% 34 76.28 0.0
29 15:50 S 20 G 35 16.09 Fair CLR 36 9 19% 34 76.3 0.0
29 14:50 S 20 G 31 16.09 Fair CLR 36 9 19% 34 76.38 0.0
29 13:50 S 20 16.09 Fair CLR 35 10 22% 33 76.45 0.0
29 12:50 S 15 G 28 16.09 Fair CLR 35 11 23% 33 76.53 0.0
29 11:50 S 22 16.09 Fair CLR 34 11 24% 32 76.61 0.0
29 10:50 S 17 G 31 16.09 A Few Clouds FEW120 32 13 31% 31 76.63 0.0
29 09:50 S 22 16.09 A Few Clouds FEW120 30 15 40% 30 76.66 0.0
29 08:50 S 19 G 30 16.09 A Few Clouds FEW120 28 15 45% 28 76.66 0.0
29 07:50 S 19 16.09 A Few Clouds FEW120 26 15 51% 27 76.63 0.0
29 06:50 S 7 16.09 Partly Cloudy SCT120 21 14 64% 76.61 0.0
29 05:50 S 11 16.09 Partly Cloudy SCT110 22 14 61% 76.58 0.0
29 05:35 S 9 16.09 Mostly Cloudy BKN110 22 14 61% 76.58 0.0
29 05:15 SW 9 16.09 Mostly Cloudy BKN110 22 14 61% 76.58 0.0
29 04:55 S 11 16.09 A Few Clouds FEW110 23 14 57% 76.58 0.0
29 04:35 S 11 16.09 Fair CLR 23 14 57% 76.61 0.0
29 04:15 S 9 16.09 Fair CLR 23 14 57% 76.61 0.0
29 03:55 SW 11 16.09 Fair CLR 24 14 54% 25 76.58 0.0
29 03:35 S 17 16.09 Fair CLR 24 14 54% 25 76.58 0.0
29 03:15 S 19 16.09 Fair CLR 24 13 50% 25 76.58 0.0
29 02:55 S 15 16.09 Fair CLR 24 13 50% 25 76.58 0.0
29 02:35 S 17 G 26 16.09 Fair CLR 25 13 47% 26 76.58 0.0
29 02:15 S 19 16.09 Fair CLR 25 13 47% 26 76.58 0.0
29 01:55 S 20 16.09 Fair CLR 26 13 45% 26 76.61 0.0
29 01:35 S 19 G 30 16.09 Fair CLR 26 12 42% 26 76.61 0.0
29 01:15 S 20 16.09 Fair CLR 26 12 42% 26 76.61 0.0
29 00:55 S 20 16.09 Fair CLR 26 11 39% 26 76.63 0.0
29 00:35 S 11 16.09 Fair CLR 25 11 42% 26 76.63 0.0
29 00:15 SE 13 16.09 Fair CLR 26 11 39% 26 76.63 0.0
28 23:55 SE 15 16.09 Fair CLR 26 10 37% 26 76.61 0.0
28 23:35 SE 11 16.09 Fair CLR 25 11 42% 26 76.61 0.0
28 23:15 SE 11 16.09 Fair CLR 26 11 39% 26 76.61 0.0
28 22:55 SE 11 16.09 Fair CLR 25 11 42% 26 76.61 0.0
28 22:35 SE 13 16.09 Fair CLR 26 10 37% 26 76.61 0.0
28 22:15 SE 13 16.09 Fair CLR 26 10 37% 26 76.61 0.0
28 20:55 E 13 16.09 Fair CLR 28 10 32% 27 76.53 0.0
28 20:35 E 9 16.09 Fair CLR 29 10 31% 28 76.5 0.0
28 20:15 SE 11 16.09 Fair CLR 29 10 31% 28 76.48 0.0
28 19:55 SE 11 16.09 Fair CLR 30 10 29% 29 76.48 0.0
28 19:35 SE 19 16.09 Fair CLR 31 10 27% 29 76.45 0.0
28 19:15 SE 20 G 33 16.09 Fair CLR 32 10 26% 30 76.45 0.0
28 18:35 SE 22 G 35 16.09 Fair CLR 33 10 24% 31 76.43 0.0
28 18:15 E 28 16.09 Fair CLR 34 11 24% 32 76.43 0.0
28 17:50 SE 20 G 31 16.09 A Few Clouds FEW090 34 10 23% 32 76.43 0.0
28 16:50 E 17 G 28 16.09 Partly Cloudy SCT090 35 10 22% 33 76.43 0.0
28 15:50 E 20 G 31 16.09 Partly Cloudy SCT090 36 10 20% 34 76.48 0.0
28 14:50 E 11 16.09 Partly Cloudy SCT080 35 12 25% 34 76.56 0.0
28 13:50 E 11 G 26 16.09 Partly Cloudy SCT080 34 12 26% 33 76.63 0.0
28 12:50 S 17 16.09 A Few Clouds FEW080 33 13 30% 32 76.68 0.0
28 11:50 S 17 16.09 A Few Clouds FEW070 32 13 31% 31 76.78 0.0
28 10:50 S 15 G 26 16.09 Fair CLR 31 14 35% 30 76.81 0.0
28 09:50 S 7 16.09 Fair CLR 28 14 42% 28 76.84 0.0
28 08:50 S 11 16.09 Fair CLR 26 15 51% 27 76.84 0.0
28 07:50 E 7 16.09 Fair CLR 24 16 61% 25 76.81 0.0
28 06:50 NE 7 16.09 Fair CLR 21 16 73% 76.78 0.0
Date Time (mdt) Wind (kph) Vis. (km) Weather Sky Cond. Air Dwpt Max. Min. Relative Humidity Wind Chill (°C) Heat Index (°C) altimeter (cm) sea level (mb) 1 hr 3 hr 6 hr
6 hour
Temperature (ºC) Pressure Precipitation (cm)